TAF SEGU
SEGU 090425Z 0906/1006 21010KT 9999 FEW010 BKN026 BKN100 BECMG 0912/0914 20003KT FEW020 BKN100 BECMG 0918/0920 21012KT SCT023 SCT100 BECMG 1000/1002 FEW010 SCT026 TX32/0920Z TN23/0910Z=
METAR SEGU
WC SEGU
WS SEGU
ZCZC CCP168 072214 GG MMMXYMYX 072214 SEQUYZYX WSEQ31 SEGU 072205 SEFG SIGMET 01 VALID 072205/080005 SEGU- SEFG GUAYAQUIL FIR EMBD TS OBS AT 2150Z E OF LINE S0043 W07519 - N0002 W07735 - S0224 W07624 TOP FL450 STNR INTSF= NNNN
ZCZC CCP907 062029 GG MMMXYMYX 062029 SEQUYZYX WSEQ31 SEGU 062024 SEFG SIGMET 03 VALID 062024/062224 SEGU- SEFG GUAYAQUIL FIR EMBD TS OBS AT 1950Z WI N0019 W07606 - N000 W07825 - S0056 W07904 - S0154 W07821 - S0112 W07530 - S0013 W07533 TOP FL410 MOV W NC= NNNN
WV SEGU
ZCZC CCP692 082358 GG MMMXYMYX 082358 SEQUYZYX WVEQ31 SEGU 082356 SEFG SIGMET 4 VALID 082356/090556 SEGU- SEFG GUAYAQUIL FIR VA ERUPTION MT REVENTADOR PSN S0004 W07739 VA CLD OBS AT 2330Z WI S0004 W07740 - S0007 W07738 - S0019 W07748 - S0007 W07755 - S0004 W07740 SFC/FL150 MOV SW 5KT FCST AT 0530Z WI S0004 W07740 - S0007 W07738 - S0022 W07749 - S0007 W07758 - S0004 W07740= NNNN
ZCZC CCP219 081919 GG MMMXYMYX 081919 SEQUYZYX WVEQ31 SEGU 081917 SEFG SIGMET 3 VALID 081917/090117 SEGU- SEFG GUAYAQUIL FIR VA ERUPTION MT REVENTADOR PSN S0004 W07739 VA CLD OBS AT 1850Z WI N0004 W07751 - S0004 W07740 - S0005 W07740 - S0002 W07754 - N0004 W07751 SFC/FL140 MOV NW 5KT FCST AT 0100Z WI N0007 W07755 - S0003 W07740 - S0005 W07740 - S0002 W07758 - N0007 W07755= NNNN